Terminal Aerodrome Forecast
Issued by NWS

Home | Current Version | Previous Version | Text Only | Print | Product List | Glossary On
Versions: 1 2 3 4 5 6 7 8 9 10 11 12 13
000
FTUS45 KABQ 031138
TAFFMN
TAF
KFMN 031138Z 0312/0412 09006KT P6SM BKN090
     FM032000 25009KT P6SM VCSH BKN100
     FM040200 13007KT P6SM BKN120=

USA.gov is the U.S. government's official web portal to all federal, state and local government web resources and services.